Date,TemperatureHighF,TemperatureAvgF,TemperatureLowF,DewpointHighF,DewpointAvgF,DewpointLowF,HumidityHigh,HumidityAvg,HumidityLow,PressureMaxIn,PressureMinIn,WindSpeedMaxMPH,WindSpeedAvgMPH,GustSpeedMaxMPH,PrecipitationSumIn
2013-2-1,20,7,-2,-8,-23,-30,27,23,18,30.35,30.03,13,4,13,0.00
2013-2-2,25,20,14,6,-10,-20,44,28,17,30.09,29.94,15,3,15,0.00
2013-2-3,27,21,16,3,-10,-18,45,26,16,30.09,29.88,15,3,15,0.00
2013-2-4,28,24,15,0,-10,-14,34,22,16,29.94,29.73,15,4,15,0.00
2013-2-5,38,28,14,8,0,-8,42,30,16,30.03,29.79,12,3,12,0.00
2013-2-6,48,34,20,10,2,-4,44,27,14,30.15,29.97,14,4,14,0.08
2013-2-7,37,36,32,26,21,10,70,55,33,30.03,29.85,12,4,12,0.55
2013-2-8,32,28,26,15,2,-3,50,32,25,30.32,30.03,13,1,13,0.00
2013-2-9,39,30,25,12,3,-6,43,33,16,30.30,29.94,16,3,16,0.00
2013-2-10,50,41,33,37,21,-2,66,48,14,29.97,29.41,20,9,20,0.20
2013-2-11,37,32,28,9,-6,-10,30,19,15,30.06,29.53,20,8,20,0.00
2013-2-12,38,30,26,6,-3,-11,34,24,14,30.12,29.85,10,3,10,0.00
2013-2-13,47,36,25,12,2,-5,44,26,12,29.85,29.67,9,2,9,0.00
2013-2-14,40,39,36,6,0,-3,27,19,16,29.67,29.62,10,4,10,0.00
2013-2-20,23,19,15,-12,-15,-18,26,20,17,30.35,30.30,10,1,10,0.00
2013-2-21,28,21,12,9,-4,-16,51,33,19,30.35,29.91,25,6,25,0.00
2013-2-22,33,27,24,19,8,-1,56,44,28,29.97,29.79,14,5,14,0.00
2013-2-23,34,26,18,-1,-8,-14,35,23,15,30.00,29.91,10,2,10,0.00
2013-2-24,41,26,13,6,-4,-10,45,29,13,30.15,29.97,9,1,9,0.00
2013-2-25,41,32,21,12,1,-7,47,28,13,30.15,29.91,13,4,13,0.00
2013-2-26,35,33,31,19,11,-2,62,42,20,29.91,29.59,23,10,23,0.00
2013-2-27,33,31,29,20,18,16,62,58,54,29.85,29.65,13,4,13,0.00
2013-2-28,35,33,31,19,13,7,58,45,31,30.12,29.85,13,2,13,0.00